Time;durP1;ratioP1;P1;durP2;ratioP2;P2;SDS_P1;SDS_P2;PMS_P1;PMS_P2;Temp;Humidity;BMP_temperature;BMP_pressure;BME280_temperature;BME280_humidity;BME280_pressure;Samples;Min_cycle;Max_cycle;Signal;HPM_P1;HPM_P2
2021/09/20 00:00:57;;;;;;;;;;;;;;;;;;5012811;28;20310;-73
2021/09/20 00:03:22;;;;;;;;;;;;;;;;;;5012642;28;19939;-74
2021/09/20 00:05:49;;;;;;;;;;;;;;;;;;5015516;28;19949;-73
2021/09/20 00:08:14;;;;;;;;;;;;;;;;;;5013482;28;19960;-73
2021/09/20 00:10:40;;;;;;;;;;;;;;;;;;5013855;28;19925;-73
2021/09/20 00:13:05;;;;;;;;;;;;;;;;;;5020994;28;19921;-74
2021/09/20 00:15:30;;;;;;;;;;;;;;;;;;5014830;28;20424;-73
2021/09/20 00:17:55;;;;;;;;;;;;;;;;;;5018082;28;19925;-73
2021/09/20 00:20:20;;;;;;;;;;;;;;;;;;5018691;28;20267;-72
2021/09/20 00:22:46;;;;;;;;;;;;;;;;;;5018088;28;19921;-73
2021/09/20 00:25:11;;;;;;;;;;;;;;;;;;5018232;28;20307;-74
2021/09/20 00:27:36;;;;;;;;;;;;;;;;;;5020963;28;19922;-73
2021/09/20 00:30:01;;;;;;;;;;;;;;;;;;5017115;28;19914;-73
2021/09/20 00:32:27;;;;;;;;;;;;;;;;;;5019021;28;20286;-73
2021/09/20 00:34:52;;;;;;;;;;;;;;;;;;5015283;28;19929;-73
2021/09/20 00:37:17;;;;;;;;;;;;;;;;;;5020674;28;19921;-73
2021/09/20 00:39:43;;;;;;;;;;;;;;;;;;5019223;28;20028;-72
2021/09/20 00:42:08;;;;;;;;;;;;;;;;;;5022143;28;20334;-73
2021/09/20 00:44:33;;;;;;;;;;;;;;;;;;5023925;28;20358;-74
2021/09/20 00:46:58;;;;;;;;;;;;;;;;;;5018155;28;19917;-73
2021/09/20 00:49:24;;;;;;;;;;;;;;;;;;5018362;28;19917;-73
2021/09/20 00:51:49;;;;;;;;;;;;;;;;;;5018021;28;19922;-73
2021/09/20 00:54:14;;;;;;;;;;;;;;;;;;5016641;28;19922;-73
2021/09/20 00:56:42;;;;;;;;;;;;;;;;;;5016855;28;19975;-73
2021/09/20 00:59:07;;;;;;;;;;;;;;;;;;5017970;28;19928;-73
2021/09/20 01:01:33;;;;;;;;;;;;;;;;;;5019502;28;19928;-73
2021/09/20 01:03:58;;;;;;;;;;;;;;;;;;5017466;28;19917;-73
2021/09/20 01:06:23;;;;;;;;;;;;;;;;;;5013988;28;19924;-73
2021/09/20 01:08:48;;;;;;;;;;;;;;;;;;5017758;28;19916;-73
2021/09/20 01:11:14;;;;;;;;;;;;;;;;;;5018035;28;19941;-72
2021/09/20 01:13:39;;;;;;;;;;;;;;;;;;5019329;28;19956;-73
2021/09/20 01:16:04;;;;;;;;;;;;;;;;;;5016612;28;19928;-73
2021/09/20 01:18:29;;;;;;;;;;;;;;;;;;5003105;28;19917;-72
2021/09/20 01:20:55;;;;;;;;;;;;;;;;;;5017275;28;19924;-73
2021/09/20 01:23:20;;;;;;;;;;;;;;;;;;5019032;28;19920;-73
2021/09/20 01:25:45;;;;;;;;;;;;;;;;;;5018103;28;19917;-72
2021/09/20 01:28:10;;;;;;;;;;;;;;;;;;5017287;28;19924;-73
2021/09/20 01:30:35;;;;;;;;;;;;;;;;;;5018649;28;20003;-72
2021/09/20 01:33:01;;;;;;;;;;;;;;;;;;5015844;28;20007;-73
2021/09/20 01:35:26;;;;;;;;;;;;;;;;;;5017343;28;19925;-72
2021/09/20 01:37:51;;;;;;;;;;;;;;;;;;5016195;28;19971;-72
2021/09/20 01:40:16;;;;;;;;;;;;;;;;;;5017682;28;19960;-72
2021/09/20 01:42:42;;;;;;;;;;;;;;;;;;5018851;28;20371;-72
2021/09/20 01:45:07;;;;;;;;;;;;;;;;;;5016953;28;19917;-72
2021/09/20 01:47:32;;;;;;;;;;;;;;;;;;5016110;28;19976;-72
2021/09/20 01:49:57;;;;;;;;;;;;;;;;;;5017475;28;19914;-72
2021/09/20 01:52:22;;;;;;;;;;;;;;;;;;5016238;28;19917;-72
2021/09/20 01:54:48;;;;;;;;;;;;;;;;;;5017395;28;20024;-72
2021/09/20 01:57:13;;;;;;;;;;;;;;;;;;5015143;28;19924;-72
2021/09/20 01:59:38;;;;;;;;;;;;;;;;;;5015823;28;19913;-73
2021/09/20 02:02:03;;;;;;;;;;;;;;;;;;5015535;28;19917;-71
2021/09/20 02:04:29;;;;;;;;;;;;;;;;;;5016413;28;19921;-72
2021/09/20 02:06:56;;;;;;;;;;;;;;;;;;5015270;28;19955;-72
2021/09/20 02:09:21;;;;;;;;;;;;;;;;;;5014915;28;19957;-72
2021/09/20 02:11:46;;;;;;;;;;;;;;;;;;5017354;28;19918;-72
2021/09/20 02:14:12;;;;;;;;;;;;;;;;;;5013771;28;19917;-73
2021/09/20 02:16:37;;;;;;;;;;;;;;;;;;5015402;28;19971;-72
2021/09/20 02:19:02;;;;;;;;;;;;;;;;;;5016006;28;20288;-72
2021/09/20 02:21:30;;;;;;;;;;;;;;;;;;5017815;28;20008;-71
2021/09/20 02:23:55;;;;;;;;;;;;;;;;;;5015819;28;19938;-72
2021/09/20 02:26:20;;;;;;;;;;;;;;;;;;5017136;28;19917;-72
2021/09/20 02:28:45;;;;;;;;;;;;;;;;;;5017195;28;20166;-73
2021/09/20 02:31:11;;;;;;;;;;;;;;;;;;5018214;28;19924;-72
2021/09/20 02:33:36;;;;;;;;;;;;;;;;;;5017759;28;19917;-72
2021/09/20 02:36:01;;;;;;;;;;;;;;;;;;5015734;28;19925;-71
2021/09/20 02:38:26;;;;;;;;;;;;;;;;;;5015958;28;19940;-72
2021/09/20 02:40:51;;;;;;;;;;;;;;;;;;5014450;28;20003;-72
2021/09/20 02:43:17;;;;;;;;;;;;;;;;;;5016514;28;19951;-72
2021/09/20 02:45:42;;;;;;;;;;;;;;;;;;5015653;28;19945;-73
2021/09/20 02:48:07;;;;;;;;;;;;;;;;;;5018187;28;20479;-71
2021/09/20 02:50:32;;;;;;;;;;;;;;;;;;5014853;28;19928;-72
2021/09/20 02:52:57;;;;;;;;;;;;;;;;;;5015640;28;19939;-71
2021/09/20 02:55:25;;;;;;;;;;;;;;;;;;5017427;28;19922;-72
2021/09/20 02:57:50;;;;;;;;;;;;;;;;;;5018167;28;20264;-73
2021/09/20 03:00:15;;;;;;;;;;;;;;;;;;5017345;28;20515;-71
2021/09/20 03:02:40;;;;;;;;;;;;;;;;;;5015900;28;19918;-72
2021/09/20 03:05:06;;;;;;;;;;;;;;;;;;5017762;28;20267;-72
2021/09/20 03:07:31;;;;;;;;;;;;;;;;;;5013061;28;20048;-72
2021/09/20 03:09:56;;;;;;;;;;;;;;;;;;5014756;28;19936;-72
2021/09/20 03:12:21;;;;;;;;;;;;;;;;;;5016731;28;19916;-72
2021/09/20 03:14:47;;;;;;;;;;;;;;;;;;5013659;28;19921;-73
2021/09/20 03:17:12;;;;;;;;;;;;;;;;;;5014415;28;19924;-72
2021/09/20 03:19:37;;;;;;;;;;;;;;;;;;5014360;28;20663;-72
2021/09/20 03:22:02;;;;;;;;;;;;;;;;;;5016054;28;20317;-71
2021/09/20 03:24:28;;;;;;;;;;;;;;;;;;5015040;28;20378;-72
2021/09/20 03:26:53;;;;;;;;;;;;;;;;;;5015239;28;19913;-72
2021/09/20 03:29:20;;;;;;;;;;;;;;;;;;5019556;28;19923;-72
2021/09/20 03:31:47;;;;;;;;;;;;;;;;;;5014855;28;19921;-72
2021/09/20 03:34:12;;;;;;;;;;;;;;;;;;5011878;28;20315;-73
2021/09/20 03:36:37;;;;;;;;;;;;;;;;;;5013742;28;20451;-73
2021/09/20 03:39:03;;;;;;;;;;;;;;;;;;5012087;28;19964;-70
2021/09/20 03:41:28;;;;;;;;;;;;;;;;;;5016117;28;20318;-71
2021/09/20 03:43:53;;;;;;;;;;;;;;;;;;5016336;28;20269;-72
2021/09/20 03:46:18;;;;;;;;;;;;;;;;;;5016298;28;19917;-73
2021/09/20 03:48:44;;;;;;;;;;;;;;;;;;5020618;28;19914;-74
2021/09/20 03:51:09;;;;;;;;;;;;;;;;;;5014280;28;19948;-71
2021/09/20 03:53:34;;;;;;;;;;;;;;;;;;5016772;28;19913;-71
2021/09/20 03:55:59;;;;;;;;;;;;;;;;;;5016720;28;19943;-73
2021/09/20 03:58:24;;;;;;;;;;;;;;;;;;5021696;28;20055;-71
2021/09/20 04:00:52;;;;;;;;;;;;;;;;;;5021274;28;20016;-71
2021/09/20 04:03:17;;;;;;;;;;;;;;;;;;5018376;28;19951;-71
2021/09/20 04:05:43;;;;;;;;;;;;;;;;;;5019796;28;19917;-72
2021/09/20 04:08:09;;;;;;;;;;;;;;;;;;5019004;28;19914;-71
2021/09/20 04:10:35;;;;;;;;;;;;;;;;;;5018152;28;19913;-72
2021/09/20 04:13:00;;;;;;;;;;;;;;;;;;5017676;28;19917;-72
2021/09/20 04:15:25;;;;;;;;;;;;;;;;;;5014602;28;19960;-72
2021/09/20 04:17:50;;;;;;;;;;;;;;;;;;5022431;28;19928;-71
2021/09/20 04:20:15;;;;;;;;;;;;;;;;;;5017421;28;20000;-71
2021/09/20 04:22:43;;;;;;;;;;;;;;;;;;5020669;28;19917;-71
2021/09/20 04:25:08;;;;;;;;;;;;;;;;;;5018818;28;20289;-73
2021/09/20 04:27:34;;;;;;;;;;;;;;;;;;5020143;28;19917;-72
2021/09/20 04:29:59;;;;;;;;;;;;;;;;;;5016921;28;19959;-72
2021/09/20 04:32:24;;;;;;;;;;;;;;;;;;5018385;28;19921;-71
2021/09/20 04:34:49;;;;;;;;;;;;;;;;;;5019017;28;19960;-71
2021/09/20 04:37:16;;;;;;;;;;;;;;;;;;5017028;28;19967;-72
2021/09/20 04:39:41;;;;;;;;;;;;;;;;;;5015493;28;19941;-73
2021/09/20 04:42:06;;;;;;;;;;;;;;;;;;5021000;28;19921;-72
2021/09/20 04:44:32;;;;;;;;;;;;;;;;;;5015290;28;19917;-72
2021/09/20 04:46:57;;;;;;;;;;;;;;;;;;5004441;28;19917;-72
2021/09/20 04:49:22;;;;;;;;;;;;;;;;;;5003227;28;19971;-72
2021/09/20 04:51:47;;;;;;;;;;;;;;;;;;5018253;28;19918;-71
2021/09/20 04:54:13;;;;;;;;;;;;;;;;;;5017771;28;20398;-72
2021/09/20 04:56:38;;;;;;;;;;;;;;;;;;5018451;28;20310;-72
2021/09/20 04:59:03;;;;;;;;;;;;;;;;;;5019086;28;19920;-73
2021/09/20 05:01:28;;;;;;;;;;;;;;;;;;5019716;28;19917;-71
2021/09/20 05:03:54;;;;;;;;;;;;;;;;;;5019336;28;20331;-72
2021/09/20 05:06:19;;;;;;;;;;;;;;;;;;5015994;28;19943;-73
2021/09/20 05:08:44;;;;;;;;;;;;;;;;;;5016407;28;20803;-72
2021/09/20 05:11:09;;;;;;;;;;;;;;;;;;5016983;28;19918;-72
2021/09/20 05:13:37;;;;;;;;;;;;;;;;;;5014003;28;19917;-72
2021/09/20 05:16:02;;;;;;;;;;;;;;;;;;5015545;28;19921;-72
2021/09/20 05:18:27;;;;;;;;;;;;;;;;;;5016315;28;19979;-72
2021/09/20 05:20:53;;;;;;;;;;;;;;;;;;5017952;28;19949;-72
2021/09/20 05:23:20;;;;;;;;;;;;;;;;;;5016389;28;19921;-73
2021/09/20 05:25:45;;;;;;;;;;;;;;;;;;5018066;28;19917;-73
2021/09/20 05:28:10;;;;;;;;;;;;;;;;;;5017703;28;19923;-72
2021/09/20 05:30:36;;;;;;;;;;;;;;;;;;5017301;28;19959;-73
2021/09/20 05:33:04;;;;;;;;;;;;;;;;;;5016439;28;19926;-72
2021/09/20 05:35:29;;;;;;;;;;;;;;;;;;5017553;28;19917;-72
2021/09/20 05:37:54;;;;;;;;;;;;;;;;;;5015228;28;19917;-72
2021/09/20 05:40:22;;;;;;;;;;;;;;;;;;5013956;28;19913;-73
2021/09/20 05:42:47;;;;;;;;;;;;;;;;;;5016513;28;19928;-73
2021/09/20 05:45:15;;;;;;;;;;;;;;;;;;5021732;28;19917;-73
2021/09/20 05:47:40;;;;;;;;;;;;;;;;;;5008695;28;19921;-73
2021/09/20 05:50:05;;;;;;;;;;;;;;;;;;5015221;28;19924;-73
2021/09/20 05:52:30;;;;;;;;;;;;;;;;;;5017130;28;21016;-72
2021/09/20 05:54:58;;;;;;;;;;;;;;;;;;5019674;28;20500;-72
2021/09/20 05:57:23;;;;;;;;;;;;;;;;;;5017648;28;19948;-72
2021/09/20 05:59:48;;;;;;;;;;;;;;;;;;5013991;28;20355;-72
2021/09/20 06:02:17;;;;;;;;;;;;;;;;;;5013905;28;19956;-72
2021/09/20 06:04:42;;;;;;;;;;;;;;;;;;5015410;28;19917;-72
2021/09/20 06:07:07;;;;;;;;;;;;;;;;;;5017592;28;20395;-72
2021/09/20 06:09:35;;;;;;;;;;;;;;;;;;5014500;28;20354;-72
2021/09/20 06:12:00;;;;;;;;;;;;;;;;;;5015062;28;19917;-72
2021/09/20 06:14:26;;;;;;;;;;;;;;;;;;5016910;28;19929;-71
2021/09/20 06:16:51;;;;;;;;;;;;;;;;;;5017361;28;19921;-72
2021/09/20 06:19:16;;;;;;;;;;;;;;;;;;5014978;28;20319;-71
2021/09/20 06:21:41;;;;;;;;;;;;;;;;;;5015283;28;19983;-71
2021/09/20 06:24:06;;;;;;;;;;;;;;;;;;5000907;28;19939;-72
2021/09/20 06:26:32;;;;;;;;;;;;;;;;;;5012362;28;19980;-70
2021/09/20 06:28:57;;;;;;;;;;;;;;;;;;5011518;28;20398;-71
2021/09/20 06:31:22;;;;;;;;;;;;;;;;;;5012378;28;19963;-71
2021/09/20 06:33:47;;;;;;;;;;;;;;;;;;5016905;28;19917;-72
2021/09/20 06:36:13;;;;;;;;;;;;;;;;;;5014963;28;19929;-70
2021/09/20 06:38:38;;;;;;;;;;;;;;;;;;5015351;28;20341;-70
2021/09/20 06:41:03;;;;;;;;;;;;;;;;;;5014116;28;19940;-70
2021/09/20 06:43:28;;;;;;;;;;;;;;;;;;5013125;28;19917;-72
2021/09/20 06:45:53;;;;;;;;;;;;;;;;;;5017049;28;20430;-72
2021/09/20 06:48:19;;;;;;;;;;;;;;;;;;5014845;28;20461;-72
2021/09/20 06:50:46;;;;;;;;;;;;;;;;;;5015095;28;19921;-71
2021/09/20 06:53:11;;;;;;;;;;;;;;;;;;5015008;28;19918;-70
2021/09/20 06:55:37;;;;;;;;;;;;;;;;;;5015159;28;19932;-69
2021/09/20 06:58:02;;;;;;;;;;;;;;;;;;5014631;28;19967;-70
2021/09/20 07:00:27;;;;;;;;;;;;;;;;;;5015710;28;20027;-71
2021/09/20 07:02:52;;;;;;;;;;;;;;;;;;5013520;28;20040;-70
2021/09/20 07:05:17;;;;;;;;;;;;;;;;;;5014226;28;20345;-68
2021/09/20 07:07:43;;;;;;;;;;;;;;;;;;5011229;28;20517;-70
2021/09/20 07:10:08;;;;;;;;;;;;;;;;;;5012603;28;19913;-71
2021/09/20 07:12:33;;;;;;;;;;;;;;;;;;5013166;28;19924;-69
2021/09/20 07:14:58;;;;;;;;;;;;;;;;;;5012267;28;19925;-70
2021/09/20 07:17:26;;;;;;;;;;;;;;;;;;5016619;28;19932;-70
2021/09/20 07:19:51;;;;;;;;;;;;;;;;;;5015364;28;20234;-69
2021/09/20 07:22:17;;;;;;;;;;;;;;;;;;5013176;28;19924;-68
2021/09/20 07:24:43;;;;;;;;;;;;;;;;;;5015423;28;19925;-69
2021/09/20 07:27:08;;;;;;;;;;;;;;;;;;5012533;28;19971;-71
2021/09/20 07:29:34;;;;;;;;;;;;;;;;;;5014351;28;19918;-68
2021/09/20 07:31:59;;;;;;;;;;;;;;;;;;5013552;28;19918;-68
2021/09/20 07:34:24;;;;;;;;;;;;;;;;;;5012300;28;19972;-70
2021/09/20 07:36:50;;;;;;;;;;;;;;;;;;5012016;28;20514;-68
2021/09/20 07:39:15;;;;;;;;;;;;;;;;;;5011576;28;20039;-69
2021/09/20 07:41:40;;;;;;;;;;;;;;;;;;5009506;28;19917;-68
2021/09/20 07:44:05;;;;;;;;;;;;;;;;;;5012986;28;20263;-69
2021/09/20 07:46:31;;;;;;;;;;;;;;;;;;5011418;28;20657;-69
2021/09/20 07:48:56;;;;;;;;;;;;;;;;;;5015410;28;19998;-68
2021/09/20 07:51:21;;;;;;;;;;;;;;;;;;5012655;28;19921;-71
2021/09/20 07:53:46;;;;;;;;;;;;;;;;;;5011638;28;19917;-69
2021/09/20 07:56:14;;;;;;;;;;;;;;;;;;5009728;28;19925;-68
2021/09/20 07:58:39;;;;;;;;;;;;;;;;;;5029705;28;19941;-69
2021/09/20 08:01:04;;;;;;;;;;;;;;;;;;5010879;28;19996;-68
2021/09/20 08:03:29;;;;;;;;;;;;;;;;;;5012994;28;19922;-69
2021/09/20 08:05:55;;;;;;;;;;;;;;;;;;5013238;28;19920;-71
2021/09/20 08:08:20;;;;;;;;;;;;;;;;;;5014115;28;20277;-70
2021/09/20 08:10:45;;;;;;;;;;;;;;;;;;5010654;28;20086;-71
2021/09/20 08:13:10;;;;;;;;;;;;;;;;;;5014771;28;20295;-70
2021/09/20 08:15:36;;;;;;;;;;;;;;;;;;5013045;28;20267;-68
2021/09/20 08:18:01;;;;;;;;;;;;;;;;;;5014168;28;19921;-73
2021/09/20 08:20:26;;;;;;;;;;;;;;;;;;5015355;28;19918;-69
2021/09/20 08:22:52;;;;;;;;;;;;;;;;;;5010753;28;21029;-69
2021/09/20 08:25:18;;;;;;;;;;;;;;;;;;5013903;28;19948;-69
2021/09/20 08:27:43;;;;;;;;;;;;;;;;;;5012930;28;19967;-68
2021/09/20 08:30:08;;;;;;;;;;;;;;;;;;5013267;28;19917;-69
2021/09/20 08:32:34;;;;;;;;;;;;;;;;;;5011574;28;19914;-71
2021/09/20 08:34:59;;;;;;;;;;;;;;;;;;5012260;28;19975;-68
2021/09/20 08:37:25;;;;;;;;;;;;;;;;;;5014572;28;19921;-69
2021/09/20 08:39:52;;;;;;;;;;;;;;;;;;5015153;28;19921;-69
2021/09/20 08:42:17;;;;;;;;;;;;;;;;;;5016636;28;19917;-68
2021/09/20 08:44:42;;;;;;;;;;;;;;;;;;5015571;28;19917;-69
2021/09/20 08:47:10;;;;;;;;;;;;;;;;;;5017837;28;20100;-69
2021/09/20 08:49:35;;;;;;;;;;;;;;;;;;5014149;28;20020;-69
2021/09/20 08:52:00;;;;;;;;;;;;;;;;;;5016412;28;20016;-69
2021/09/20 08:54:26;;;;;;;;;;;;;;;;;;5014024;28;19921;-69
2021/09/20 08:56:53;;;;;;;;;;;;;;;;;;5014885;28;19925;-69
2021/09/20 08:59:21;;;;;;;;;;;;;;;;;;5016063;28;20094;-69
2021/09/20 09:01:46;;;;;;;;;;;;;;;;;;5010494;28;20066;-68
2021/09/20 09:04:11;;;;;;;;;;;;;;;;;;5014971;28;19976;-69
2021/09/20 09:06:36;;;;;;;;;;;;;;;;;;5014547;28;19967;-71
2021/09/20 09:09:02;;;;;;;;;;;;;;;;;;5015757;28;20078;-70
2021/09/20 09:11:27;;;;;;;;;;;;;;;;;;5013894;28;20380;-69
2021/09/20 09:13:52;;;;;;;;;;;;;;;;;;5014891;28;20367;-69
2021/09/20 09:16:17;;;;;;;;;;;;;;;;;;5014630;28;20343;-69
2021/09/20 09:18:42;;;;;;;;;;;;;;;;;;5002241;28;19921;-69
2021/09/20 09:21:08;;;;;;;;;;;;;;;;;;5016385;28;20008;-69
2021/09/20 09:23:33;;;;;;;;;;;;;;;;;;5016097;28;19947;-70
2021/09/20 09:25:58;;;;;;;;;;;;;;;;;;5015423;28;19917;-69
2021/09/20 09:28:23;;;;;;;;;;;;;;;;;;5015345;28;20295;-68
2021/09/20 09:30:48;;;;;;;;;;;;;;;;;;5012851;28;20362;-70
2021/09/20 09:33:14;;;;;;;;;;;;;;;;;;5014749;28;20370;-68
2021/09/20 09:35:39;;;;;;;;;;;;;;;;;;5015317;28;19920;-70
2021/09/20 09:38:04;;;;;;;;;;;;;;;;;;5012473;28;20259;-70
2021/09/20 09:40:30;;;;;;;;;;;;;;;;;;5020705;28;19913;-69
2021/09/20 09:42:55;;;;;;;;;;;;;;;;;;5016315;28;19967;-70
2021/09/20 09:45:20;;;;;;;;;;;;;;;;;;5017496;28;20266;-68
2021/09/20 09:47:45;;;;;;;;;;;;;;;;;;5014671;28;19937;-69
2021/09/20 09:50:11;;;;;;;;;;;;;;;;;;5012324;28;19928;-69
2021/09/20 09:52:36;;;;;;;;;;;;;;;;;;4999190;28;19925;-69
2021/09/20 09:55:02;;;;;;;;;;;;;;;;;;5002024;28;20337;-69
2021/09/20 09:57:27;;;;;;;;;;;;;;;;;;5017342;28;20310;-70
2021/09/20 09:59:52;;;;;;;;;;;;;;;;;;5014249;28;20226;-71
2021/09/20 10:02:18;;;;;;;;;;;;;;;;;;5006960;28;19922;-69
2021/09/20 10:04:43;;;;;;;;;;;;;;;;;;5014743;28;19917;-68
2021/09/20 10:07:08;;;;;;;;;;;;;;;;;;5013975;28;19925;-68
2021/09/20 10:09:36;;;;;;;;;;;;;;;;;;5013855;28;20558;-68
2021/09/20 10:12:01;;;;;;;;;;;;;;;;;;5012113;28;20354;-69
2021/09/20 10:14:26;;;;;;;;;;;;;;;;;;5015126;28;19963;-69
2021/09/20 10:16:51;;;;;;;;;;;;;;;;;;5011880;28;19928;-70
2021/09/20 10:19:19;;;;;;;;;;;;;;;;;;5014377;28;19943;-70
2021/09/20 10:21:44;;;;;;;;;;;;;;;;;;5012093;28;20370;-70
2021/09/20 10:24:09;;;;;;;;;;;;;;;;;;5018317;28;19967;-68
2021/09/20 10:26:35;;;;;;;;;;;;;;;;;;5014520;28;19917;-70
2021/09/20 10:29:00;;;;;;;;;;;;;;;;;;5011396;28;19993;-70
2021/09/20 10:31:25;;;;;;;;;;;;;;;;;;5012528;28;19963;-68
2021/09/20 10:33:50;;;;;;;;;;;;;;;;;;5012666;28;20409;-70
2021/09/20 10:36:16;;;;;;;;;;;;;;;;;;5012328;28;20247;-68
2021/09/20 10:38:41;;;;;;;;;;;;;;;;;;5014343;28;19922;-69
2021/09/20 10:41:06;;;;;;;;;;;;;;;;;;5013897;28;20301;-69
2021/09/20 10:43:35;;;;;;;;;;;;;;;;;;5012387;28;19979;-70
2021/09/20 10:46:02;;;;;;;;;;;;;;;;;;5012571;28;19922;-70
2021/09/20 10:48:27;;;;;;;;;;;;;;;;;;5013565;28;19917;-70
2021/09/20 10:50:52;;;;;;;;;;;;;;;;;;5014476;28;19917;-69
2021/09/20 10:53:22;;;;;;;;;;;;;;;;;;5011741;28;19961;-69
2021/09/20 10:55:47;;;;;;;;;;;;;;;;;;5010038;28;19951;-69
2021/09/20 10:58:13;;;;;;;;;;;;;;;;;;5016645;28;20406;-71
2021/09/20 11:00:38;;;;;;;;;;;;;;;;;;5006357;28;19921;-69
2021/09/20 11:03:03;;;;;;;;;;;;;;;;;;4970806;28;19968;-70
2021/09/20 11:05:28;;;;;;;;;;;;;;;;;;4974045;28;20401;-71
2021/09/20 11:07:53;;;;;;;;;;;;;;;;;;4978560;28;19939;-71
2021/09/20 11:10:19;;;;;;;;;;;;;;;;;;4975490;28;19925;-71
2021/09/20 11:12:44;;;;;;;;;;;;;;;;;;4974600;28;20188;-70
2021/09/20 11:15:12;;;;;;;;;;;;;;;;;;4976288;28;20056;-71
2021/09/20 11:17:40;;;;;;;;;;;;;;;;;;4975978;28;20059;-71
2021/09/20 11:20:05;;;;;;;;;;;;;;;;;;4976178;28;20386;-70
2021/09/20 11:22:31;;;;;;;;;;;;;;;;;;4976281;28;20043;-71
2021/09/20 11:25:02;;;;;;;;;;;;;;;;;;4975918;28;19917;-71
2021/09/20 11:27:27;;;;;;;;;;;;;;;;;;4972460;28;19921;-73
2021/09/20 11:29:52;;;;;;;;;;;;;;;;;;4977192;28;19960;-70
2021/09/20 11:32:18;;;;;;;;;;;;;;;;;;4978556;28;19921;-69
2021/09/20 11:34:48;;;;;;;;;;;;;;;;;;4976372;28;20882;-71
2021/09/20 11:37:13;;;;;;;;;;;;;;;;;;4978467;28;19922;-71
2021/09/20 11:39:38;;;;;;;;;;;;;;;;;;4975856;28;20514;-70
2021/09/20 11:42:04;;;;;;;;;;;;;;;;;;4976199;28;20523;-70
2021/09/20 11:44:29;;;;;;;;;;;;;;;;;;4976959;28;20582;-70
2021/09/20 11:46:54;;;;;;;;;;;;;;;;;;4977500;28;19975;-70
2021/09/20 11:49:19;;;;;;;;;;;;;;;;;;4976678;28;19928;-69
2021/09/20 11:51:45;;;;;;;;;;;;;;;;;;4978611;28;19940;-70
2021/09/20 11:54:10;;;;;;;;;;;;;;;;;;4976626;28;20382;-71
2021/09/20 11:56:35;;;;;;;;;;;;;;;;;;4976243;28;20592;-70
2021/09/20 11:59:00;;;;;;;;;;;;;;;;;;4976846;28;20419;-70
2021/09/20 12:01:26;;;;;;;;;;;;;;;;;;4974745;28;19991;-72
2021/09/20 12:03:51;;;;;;;;;;;;;;;;;;4979021;28;19928;-70
2021/09/20 12:06:16;;;;;;;;;;;;;;;;;;4976387;28;19921;-71
2021/09/20 12:08:41;;;;;;;;;;;;;;;;;;4975760;28;20006;-72
2021/09/20 12:11:07;;;;;;;;;;;;;;;;;;4978404;28;20100;-69
2021/09/20 12:13:35;;;;;;;;;;;;;;;;;;4979532;28;19926;-71
2021/09/20 12:16:00;;;;;;;;;;;;;;;;;;4978985;28;20241;-69
2021/09/20 12:18:25;;;;;;;;;;;;;;;;;;4980118;28;20154;-71
2021/09/20 12:20:50;;;;;;;;;;;;;;;;;;4978631;28;20205;-72
2021/09/20 12:23:15;;;;;;;;;;;;;;;;;;4981017;28;19925;-71
2021/09/20 12:25:41;;;;;;;;;;;;;;;;;;4983210;28;19921;-71
2021/09/20 12:28:06;;;;;;;;;;;;;;;;;;4978869;28;20195;-70
2021/09/20 12:30:31;;;;;;;;;;;;;;;;;;4980990;28;19967;-70
2021/09/20 12:32:59;;;;;;;;;;;;;;;;;;4978738;28;19928;-70
2021/09/20 12:35:24;;;;;;;;;;;;;;;;;;4980244;28;20040;-72
2021/09/20 12:37:49;;;;;;;;;;;;;;;;;;4982794;28;20804;-70
2021/09/20 12:40:14;;;;;;;;;;;;;;;;;;4978118;28;19921;-70
2021/09/20 12:42:40;;;;;;;;;;;;;;;;;;4978146;28;19921;-72
2021/09/20 12:45:05;;;;;;;;;;;;;;;;;;4980271;28;20567;-71
2021/09/20 12:47:30;;;;;;;;;;;;;;;;;;4978640;28;20467;-71
2021/09/20 12:49:55;;;;;;;;;;;;;;;;;;5007242;28;19933;-71
2021/09/20 12:52:20;;;;;;;;;;;;;;;;;;5014791;28;19921;-71
2021/09/20 12:54:46;;;;;;;;;;;;;;;;;;5015459;28;19946;-71
2021/09/20 12:57:11;;;;;;;;;;;;;;;;;;5016895;28;19921;-70
2021/09/20 12:59:36;;;;;;;;;;;;;;;;;;5016556;28;19928;-71
2021/09/20 13:02:01;;;;;;;;;;;;;;;;;;5020489;28;19921;-70
2021/09/20 13:04:27;;;;;;;;;;;;;;;;;;5017121;28;19920;-69
2021/09/20 13:06:54;;;;;;;;;;;;;;;;;;5015534;28;20363;-71
2021/09/20 13:09:19;;;;;;;;;;;;;;;;;;5014742;28;19917;-70
2021/09/20 13:11:44;;;;;;;;;;;;;;;;;;5003377;28;19924;-68
2021/09/20 13:14:10;;;;;;;;;;;;;;;;;;5013958;28;19960;-68
2021/09/20 13:16:35;;;;;;;;;;;;;;;;;;5017379;28;20291;-68
2021/09/20 13:19:00;;;;;;;;;;;;;;;;;;5015184;28;19917;-69
2021/09/20 13:21:26;;;;;;;;;;;;;;;;;;5016070;28;19913;-69
2021/09/20 13:23:52;;;;;;;;;;;;;;;;;;5016350;28;19921;-69
2021/09/20 13:26:18;;;;;;;;;;;;;;;;;;5017864;28;19949;-67
2021/09/20 13:28:44;;;;;;;;;;;;;;;;;;5016169;28;19924;-69
2021/09/20 13:31:09;;;;;;;;;;;;;;;;;;5016298;28;20043;-69
2021/09/20 13:33:34;;;;;;;;;;;;;;;;;;5014825;28;20012;-69
2021/09/20 13:36:00;;;;;;;;;;;;;;;;;;5015806;28;20020;-70
2021/09/20 13:38:25;;;;;;;;;;;;;;;;;;5018236;28;19921;-69
2021/09/20 13:40:50;;;;;;;;;;;;;;;;;;5013712;28;20346;-73
2021/09/20 13:43:16;;;;;;;;;;;;;;;;;;4998772;28;19917;-69
2021/09/20 13:45:41;;;;;;;;;;;;;;;;;;5014782;28;19944;-74
2021/09/20 13:48:06;;;;;;;;;;;;;;;;;;5014650;28;20342;-73
2021/09/20 13:50:31;;;;;;;;;;;;;;;;;;5014677;28;19925;-73
2021/09/20 13:52:58;;;;;;;;;;;;;;;;;;5017051;28;19918;-73
2021/09/20 13:55:23;;;;;;;;;;;;;;;;;;5017358;28;20012;-73
2021/09/20 13:57:48;;;;;;;;;;;;;;;;;;5015287;28;20440;-74
2021/09/20 14:00:14;;;;;;;;;;;;;;;;;;5015064;28;20260;-73
2021/09/20 14:02:39;;;;;;;;;;;;;;;;;;5016925;28;19917;-71
2021/09/20 14:05:06;;;;;;;;;;;;;;;;;;5013169;28;20359;-72
2021/09/20 14:07:32;;;;;;;;;;;;;;;;;;5013436;28;19924;-72
2021/09/20 14:09:57;;;;;;;;;;;;;;;;;;5015638;28;20441;-70
2021/09/20 14:12:22;;;;;;;;;;;;;;;;;;5012181;28;19924;-71
2021/09/20 14:14:47;;;;;;;;;;;;;;;;;;5014918;28;19925;-72
2021/09/20 14:17:12;;;;;;;;;;;;;;;;;;5013425;28;19917;-71
2021/09/20 14:19:38;;;;;;;;;;;;;;;;;;5003088;28;19924;-71
2021/09/20 14:22:05;;;;;;;;;;;;;;;;;;5014833;28;19997;-70
2021/09/20 14:24:30;;;;;;;;;;;;;;;;;;5013929;28;20973;-71
2021/09/20 14:26:56;;;;;;;;;;;;;;;;;;5015385;28;20516;-73
2021/09/20 14:29:21;;;;;;;;;;;;;;;;;;5014882;28;19917;-71
2021/09/20 14:31:46;;;;;;;;;;;;;;;;;;5015238;28;19948;-72
2021/09/20 14:34:11;;;;;;;;;;;;;;;;;;5013957;28;20238;-72
2021/09/20 14:36:36;;;;;;;;;;;;;;;;;;5012951;28;19917;-74
2021/09/20 14:39:02;;;;;;;;;;;;;;;;;;5012677;28;19913;-75
2021/09/20 14:41:27;;;;;;;;;;;;;;;;;;5014120;28;20162;-73
2021/09/20 14:43:55;;;;;;;;;;;;;;;;;;5012014;28;20392;-74
2021/09/20 14:46:20;;;;;;;;;;;;;;;;;;5014488;28;19917;-75
2021/09/20 14:48:46;;;;;;;;;;;;;;;;;;5013586;28;19925;-74
2021/09/20 14:51:11;;;;;;;;;;;;;;;;;;5011268;28;19921;-72
2021/09/20 14:53:37;;;;;;;;;;;;;;;;;;5014007;28;19918;-72
2021/09/20 14:56:02;;;;;;;;;;;;;;;;;;5012131;28;20298;-75
2021/09/20 14:58:27;;;;;;;;;;;;;;;;;;5015679;28;19918;-71
2021/09/20 15:00:52;;;;;;;;;;;;;;;;;;5014524;28;20292;-72
2021/09/20 15:03:19;;;;;;;;;;;;;;;;;;5013402;28;19952;-72
2021/09/20 15:05:44;;;;;;;;;;;;;;;;;;5028845;28;20021;-74
2021/09/20 15:08:10;;;;;;;;;;;;;;;;;;5003784;28;19917;-71
2021/09/20 15:10:35;;;;;;;;;;;;;;;;;;5012548;28;19941;-71
2021/09/20 15:13:00;;;;;;;;;;;;;;;;;;5016084;28;20804;-71
2021/09/20 15:15:25;;;;;;;;;;;;;;;;;;5010281;28;20028;-71
2021/09/20 15:17:52;;;;;;;;;;;;;;;;;;5016427;28;20342;-72
2021/09/20 15:20:18;;;;;;;;;;;;;;;;;;5019943;28;20592;-72
2021/09/20 15:22:43;;;;;;;;;;;;;;;;;;5012531;28;19917;-76
2021/09/20 15:25:08;;;;;;;;;;;;;;;;;;5013783;28;19948;-72
2021/09/20 15:27:33;;;;;;;;;;;;;;;;;;5012158;28;20390;-73
2021/09/20 15:30:01;;;;;;;;;;;;;;;;;;5010515;28;20127;-71
2021/09/20 15:32:28;;;;;;;;;;;;;;;;;;5012336;28;20409;-73
2021/09/20 15:34:53;;;;;;;;;;;;;;;;;;5011158;28;20201;-72
2021/09/20 15:37:18;;;;;;;;;;;;;;;;;;5012475;28;20304;-70
2021/09/20 15:39:44;;;;;;;;;;;;;;;;;;5010369;28;20156;-72
2021/09/20 15:42:09;;;;;;;;;;;;;;;;;;5010505;28;20437;-73
2021/09/20 15:44:34;;;;;;;;;;;;;;;;;;5015722;28;19917;-72
2021/09/20 15:46:59;;;;;;;;;;;;;;;;;;5016620;28;19972;-72
2021/09/20 15:49:25;;;;;;;;;;;;;;;;;;5023016;28;20019;-72
2021/09/20 15:51:50;;;;;;;;;;;;;;;;;;5021208;28;20047;-71
2021/09/20 15:54:18;;;;;;;;;;;;;;;;;;5018793;28;19917;-72
2021/09/20 15:56:43;;;;;;;;;;;;;;;;;;5021312;28;19917;-72
2021/09/20 15:59:09;;;;;;;;;;;;;;;;;;5018400;28;19991;-70
2021/09/20 16:01:35;;;;;;;;;;;;;;;;;;5019062;28;19921;-73
2021/09/20 16:04:01;;;;;;;;;;;;;;;;;;5021877;28;19920;-74
2021/09/20 16:06:26;;;;;;;;;;;;;;;;;;5023310;28;20311;-72
2021/09/20 16:08:52;;;;;;;;;;;;;;;;;;5022104;28;20405;-71
2021/09/20 16:11:17;;;;;;;;;;;;;;;;;;5025721;28;19943;-71
2021/09/20 16:13:42;;;;;;;;;;;;;;;;;;5021512;28;20410;-71
2021/09/20 16:16:07;;;;;;;;;;;;;;;;;;5021529;28;19925;-73
2021/09/20 16:18:33;;;;;;;;;;;;;;;;;;5016761;28;20371;-72
2021/09/20 16:20:58;;;;;;;;;;;;;;;;;;5021109;28;19924;-72
2021/09/20 16:23:25;;;;;;;;;;;;;;;;;;5016940;28;20285;-72
2021/09/20 16:25:51;;;;;;;;;;;;;;;;;;5021371;28;20472;-72
2021/09/20 16:28:16;;;;;;;;;;;;;;;;;;5019190;28;20480;-70
2021/09/20 16:30:41;;;;;;;;;;;;;;;;;;5019136;28;19916;-71
2021/09/20 16:33:06;;;;;;;;;;;;;;;;;;5018834;28;19936;-72